createdAt,value
2023-04-02T00:02:31.773Z,82.74
2023-04-02T00:05:52.158Z,82.89
2023-04-02T00:09:01.196Z,83.45
2023-04-02T00:12:17.863Z,83.20
2023-04-02T00:15:20.840Z,83.61
2023-04-02T00:18:26.157Z,83.54
2023-04-02T00:21:31.847Z,83.42
2023-04-02T00:24:34.905Z,83.34
2023-04-02T00:27:38.884Z,83.29
2023-04-02T00:30:48.406Z,83.35
2023-04-02T00:33:54.311Z,83.65
2023-04-02T00:36:57.465Z,83.40
2023-04-02T00:40:06.241Z,83.49
2023-04-02T00:43:16.729Z,83.59
2023-04-02T00:46:24.275Z,83.85
2023-04-02T00:49:36.103Z,84.33
2023-04-02T00:52:40.126Z,84.54
2023-04-02T00:55:57.399Z,84.49
2023-04-02T00:59:05.744Z,84.57
2023-04-02T01:02:26.485Z,84.69
2023-04-02T01:05:36.687Z,84.51
2023-04-02T01:09:01.594Z,85.04
2023-04-02T01:12:24.859Z,85.00
2023-04-02T01:15:37.106Z,85.35
2023-04-02T01:18:53.480Z,85.10
2023-04-02T01:22:02.142Z,85.79
2023-04-02T01:25:06.520Z,85.97
2023-04-02T01:28:19.426Z,85.88
2023-04-02T01:31:29.251Z,86.05
2023-04-02T01:34:32.211Z,86.08
2023-04-02T01:37:44.926Z,86.34
2023-04-02T01:40:56.755Z,87.03
2023-04-02T01:44:04.194Z,87.44
2023-04-02T01:47:13.019Z,87.64
2023-04-02T01:50:34.017Z,87.43
2023-04-02T01:53:43.009Z,87.73
2023-04-02T01:56:47.401Z,87.74
2023-04-02T01:59:50.299Z,88.23
2023-04-02T02:02:54.430Z,88.21
2023-04-02T02:06:00.945Z,88.31
2023-04-02T02:09:05.893Z,88.67
2023-04-02T02:12:16.416Z,89.03
2023-04-02T02:15:21.971Z,89.26
2023-04-02T02:18:27.643Z,88.99
2023-04-02T02:21:40.017Z,89.03
2023-04-02T02:24:43.391Z,89.55
2023-04-02T02:28:02.083Z,89.70
2023-04-02T02:31:17.662Z,89.63
2023-04-02T02:34:25.893Z,90.05
2023-04-02T02:37:31.804Z,89.83
2023-04-02T02:40:41.677Z,89.56
2023-04-02T02:43:51.253Z,89.31
2023-04-02T02:46:57.993Z,89.46
2023-04-02T02:50:13.968Z,89.65
2023-04-02T02:53:20.635Z,90.30
2023-04-02T02:56:24.997Z,91.37
2023-04-02T02:59:31.018Z,91.51
2023-04-02T03:02:37.567Z,91.83
2023-04-02T03:05:42.461Z,92.29
2023-04-02T03:08:52.321Z,92.72
2023-04-02T03:12:03.281Z,93.02
2023-04-02T03:15:17.938Z,93.39
2023-04-02T03:18:32.219Z,93.08
2023-04-02T03:21:42.723Z,93.04
2023-04-02T03:24:53.737Z,93.45
2023-04-02T03:28:03.684Z,93.16
2023-04-02T03:31:09.802Z,92.88
2023-04-02T03:34:17.985Z,92.74
2023-04-02T03:37:27.027Z,92.99
2023-04-02T03:40:35.552Z,92.79
2023-04-02T03:43:42.417Z,93.01
2023-04-02T03:46:57.270Z,93.13
2023-04-02T03:50:04.716Z,92.92
2023-04-02T03:53:14.999Z,93.02
2023-04-02T03:56:28.397Z,93.15
2023-04-02T03:59:40.499Z,92.78
2023-04-02T04:02:48.668Z,93.12
2023-04-02T04:05:55.754Z,92.84
2023-04-02T04:09:08.778Z,92.75
2023-04-02T04:12:25.301Z,93.14
2023-04-02T04:15:33.620Z,93.00
2023-04-02T04:18:44.955Z,93.13
2023-04-02T04:21:48.793Z,92.70
2023-04-02T04:24:53.369Z,93.02
2023-04-02T04:28:07.782Z,92.60
2023-04-02T04:31:20.959Z,92.66
2023-04-02T04:34:36.373Z,92.53
2023-04-02T04:37:43.383Z,92.75
2023-04-02T04:40:53.892Z,92.46
2023-04-02T04:44:03.725Z,92.37
2023-04-02T04:47:11.544Z,92.65
2023-04-02T04:50:20.841Z,92.75
2023-04-02T04:53:26.256Z,92.67
2023-04-02T04:56:32.828Z,92.74
2023-04-02T04:59:45.579Z,92.75
2023-04-02T05:02:53.203Z,92.75
2023-04-02T05:06:02.311Z,92.83
2023-04-02T05:09:18.848Z,92.78
2023-04-02T05:12:34.736Z,92.73
2023-04-02T05:15:42.739Z,92.54
2023-04-02T05:18:51.053Z,92.62
2023-04-02T05:21:58.697Z,93.12
2023-04-02T05:25:12.363Z,92.85
2023-04-02T05:28:22.601Z,92.66
2023-04-02T05:31:28.917Z,93.09
2023-04-02T05:34:37.378Z,93.28
2023-04-02T05:37:41.256Z,93.46
2023-04-02T05:40:49.177Z,93.47
2023-04-02T05:44:00.981Z,93.51
2023-04-02T05:47:09.271Z,93.29
2023-04-02T05:50:24.942Z,92.88
2023-04-02T05:53:33.210Z,93.28
2023-04-02T05:56:41.670Z,92.63
2023-04-02T05:59:50.706Z,92.52
2023-04-02T06:03:00.105Z,92.68
2023-04-02T06:06:14.686Z,92.49
2023-04-02T06:09:25.371Z,92.13
2023-04-02T06:12:33.383Z,92.20
2023-04-02T06:15:39.441Z,92.54
2023-04-02T06:18:44.180Z,92.60
2023-04-02T06:21:49.741Z,92.44
2023-04-02T06:24:57.412Z,92.12
2023-04-02T06:28:05.671Z,91.56
2023-04-02T06:31:18.438Z,91.73
2023-04-02T06:34:23.349Z,91.51
2023-04-02T06:37:32.206Z,90.99
2023-04-02T06:40:42.613Z,90.91
2023-04-02T06:43:49.048Z,90.76
2023-04-02T06:46:57.547Z,90.84
2023-04-02T06:50:07.760Z,90.41
2023-04-02T06:53:20.828Z,90.19
2023-04-02T06:56:39.055Z,89.80
2023-04-02T06:59:47.862Z,89.65
2023-04-02T07:02:53.352Z,88.91
2023-04-02T07:05:56.578Z,88.45
2023-04-02T07:08:59.928Z,88.19
2023-04-02T07:12:03.268Z,87.91
2023-04-02T07:15:06.899Z,87.86
2023-04-02T07:18:22.274Z,87.58
2023-04-02T07:21:25.531Z,86.47
2023-04-02T07:24:28.227Z,85.85
2023-04-02T07:27:31.824Z,85.35
2023-04-02T07:30:34.579Z,84.96
2023-04-02T07:33:39.384Z,84.30
2023-04-02T07:36:43.703Z,84.35
2023-04-02T07:39:46.452Z,84.01
2023-04-02T07:42:49.682Z,84.32
2023-04-02T07:45:52.516Z,83.86
2023-04-02T07:48:56.707Z,83.72
2023-04-02T07:51:59.432Z,82.48
2023-04-02T07:55:02.847Z,82.61
2023-04-02T07:58:05.570Z,83.38
2023-04-02T08:01:16.936Z,83.81
2023-04-02T08:04:23.292Z,83.13
2023-04-02T08:07:28.031Z,82.88
2023-04-02T08:10:30.897Z,81.62
2023-04-02T08:13:33.857Z,81.02
2023-04-02T08:16:50.671Z,80.99
2023-04-02T08:19:56.059Z,82.47
2023-04-02T08:23:02.321Z,86.67
2023-04-02T08:26:06.269Z,91.06
2023-04-02T08:29:09.149Z,93.71
2023-04-02T08:32:16.128Z,95.96
2023-04-02T08:35:23.579Z,97.56
2023-04-02T08:38:26.485Z,97.88
2023-04-02T08:41:31.147Z,98.80
2023-04-02T08:44:45.970Z,98.82
2023-04-02T08:47:49.808Z,99.20
2023-04-02T08:50:54.728Z,98.79
2023-04-02T08:54:02.966Z,98.28
2023-04-02T08:57:12.531Z,99.05
2023-04-02T09:00:30.049Z,97.80
2023-04-02T09:03:37.631Z,98.34
2023-04-02T09:06:44.014Z,97.67
2023-04-02T09:09:51.720Z,97.18
2023-04-02T09:12:54.480Z,96.48
2023-04-02T09:16:01.840Z,97.32
2023-04-02T09:19:15.911Z,96.21
2023-04-02T09:22:22.600Z,95.80
2023-04-02T09:25:28.022Z,96.50
2023-04-02T09:28:30.926Z,96.97
2023-04-02T09:31:40.063Z,97.88
2023-04-02T09:34:42.875Z,98.54
2023-04-02T09:37:47.659Z,97.29
2023-04-02T09:40:52.856Z,95.20
2023-04-02T09:44:13.303Z,95.31
2023-04-02T09:47:28.711Z,95.77
2023-04-02T09:50:33.537Z,97.53
2023-04-02T09:53:41.874Z,95.09
2023-04-02T09:57:01.852Z,92.12
2023-04-02T10:00:30.425Z,90.85
2023-04-02T10:03:34.366Z,91.11
2023-04-02T10:06:37.969Z,90.46
2023-04-02T10:09:42.013Z,93.88
2023-04-02T10:12:48.186Z,92.78
2023-04-02T10:15:56.940Z,90.26
2023-04-02T10:19:02.223Z,88.72
2023-04-02T10:22:10.636Z,88.60
2023-04-02T10:25:17.241Z,90.14
2023-04-02T10:28:32.986Z,85.82
2023-04-02T10:31:45.225Z,84.74
2023-04-02T10:34:57.217Z,83.74
2023-04-02T10:38:39.631Z,85.88
2023-04-02T10:41:52.073Z,85.90
2023-04-02T10:44:58.131Z,85.79
2023-04-02T10:48:09.993Z,79.12
2023-04-02T10:51:21.250Z,79.69
2023-04-02T10:54:34.835Z,80.90
2023-04-02T10:57:40.719Z,79.61
2023-04-02T11:00:45.879Z,80.69
2023-04-02T11:03:57.854Z,80.76
2023-04-02T11:07:13.688Z,81.04
2023-04-02T11:10:20.781Z,80.98
2023-04-02T11:13:29.518Z,81.82
2023-04-02T11:16:33.000Z,84.01
2023-04-02T11:19:37.769Z,81.92
2023-04-02T11:22:41.770Z,79.66
2023-04-02T11:25:44.658Z,79.42
2023-04-02T11:28:48.836Z,79.97
2023-04-02T11:32:12.529Z,82.12
2023-04-02T11:35:28.905Z,78.58
2023-04-02T11:38:54.865Z,76.58
2023-04-02T11:42:05.533Z,77.97
2023-04-02T11:45:52.806Z,78.12
2023-04-02T11:49:39.096Z,74.89
2023-04-02T11:52:53.844Z,75.44
2023-04-02T11:56:09.162Z,74.98
2023-04-02T11:59:21.329Z,76.50
2023-04-02T12:02:30.289Z,77.07
2023-04-02T12:05:43.142Z,76.07
2023-04-02T12:08:58.281Z,76.30
2023-04-02T12:12:03.030Z,77.08
2023-04-02T12:15:10.451Z,75.62
2023-04-02T12:18:16.932Z,74.67
2023-04-02T12:21:24.118Z,74.76
2023-04-02T12:24:31.283Z,75.45
2023-04-02T12:27:38.329Z,75.31
2023-04-02T12:30:42.544Z,73.66
2023-04-02T12:33:45.818Z,72.84
2023-04-02T12:37:04.011Z,73.63
2023-04-02T12:40:18.406Z,75.09
2023-04-02T12:43:29.293Z,72.50
2023-04-02T12:46:34.608Z,72.55
2023-04-02T12:49:39.543Z,72.07
2023-04-02T12:52:48.537Z,73.57
2023-04-02T12:55:53.124Z,74.05
2023-04-02T12:58:57.163Z,72.90
2023-04-02T13:02:02.575Z,73.89
2023-04-02T13:05:05.705Z,72.63
2023-04-02T13:08:18.826Z,72.78
2023-04-02T13:11:22.598Z,72.57
2023-04-02T13:14:25.780Z,73.81
2023-04-02T13:17:38.459Z,75.71
2023-04-02T13:20:42.585Z,76.34
2023-04-02T13:23:47.209Z,77.98
2023-04-02T13:26:51.167Z,78.98
2023-04-02T13:29:53.807Z,76.08
2023-04-02T13:32:57.022Z,74.90
2023-04-02T13:36:00.111Z,74.34
2023-04-02T13:39:06.164Z,74.57
2023-04-02T13:42:12.857Z,76.95
2023-04-02T13:45:26.354Z,75.18
2023-04-02T13:48:29.069Z,73.25
2023-04-02T13:51:37.246Z,74.44
2023-04-02T13:54:46.619Z,74.59
2023-04-02T13:57:50.127Z,74.65
2023-04-02T14:00:52.924Z,74.79
2023-04-02T14:03:58.165Z,75.67
2023-04-02T14:07:23.274Z,76.97
2023-04-02T14:10:40.180Z,76.76
2023-04-02T14:13:58.956Z,75.80
2023-04-02T14:17:15.065Z,75.72
2023-04-02T14:20:32.839Z,76.29
2023-04-02T14:23:56.746Z,76.03
2023-04-02T14:27:15.967Z,75.20
2023-04-02T14:30:23.290Z,77.01
2023-04-02T14:33:36.840Z,75.87
2023-04-02T14:36:51.217Z,74.59
2023-04-02T14:40:03.996Z,74.17
2023-04-02T14:43:12.837Z,73.59
2023-04-02T14:46:16.266Z,73.96
2023-04-02T14:49:25.995Z,73.53
2023-04-02T14:52:32.762Z,73.42
2023-04-02T14:55:38.971Z,72.74
2023-04-02T14:58:48.437Z,73.26
2023-04-02T15:01:58.350Z,73.49
2023-04-02T15:05:05.207Z,73.03
2023-04-02T15:08:16.413Z,72.04
2023-04-02T15:11:22.565Z,71.57
2023-04-02T15:14:31.524Z,72.48
2023-04-02T15:17:34.291Z,72.08
2023-04-02T15:20:41.028Z,72.74
2023-04-02T15:23:56.323Z,73.24
2023-04-02T15:27:18.261Z,73.61
2023-04-02T15:30:31.162Z,71.51
2023-04-02T15:33:44.797Z,71.44
2023-04-02T15:36:56.414Z,73.29
2023-04-02T15:40:21.293Z,70.80
2023-04-02T15:43:30.082Z,70.80
2023-04-02T15:46:44.982Z,70.51
2023-04-02T15:49:56.328Z,73.42
2023-04-02T15:53:10.713Z,71.25
2023-04-02T15:56:25.272Z,73.35
2023-04-02T15:59:42.056Z,72.43
2023-04-02T16:03:08.348Z,71.97
2023-04-02T16:06:26.506Z,70.31
2023-04-02T16:09:35.797Z,70.85
2023-04-02T16:12:40.477Z,72.91
2023-04-02T16:15:48.059Z,71.29
2023-04-02T16:18:58.298Z,71.86
2023-04-02T16:22:07.106Z,70.29
2023-04-02T16:25:18.297Z,71.01
2023-04-02T16:28:28.386Z,71.04
2023-04-02T16:31:37.541Z,70.87
2023-04-02T16:34:50.344Z,69.10
2023-04-02T16:37:59.262Z,70.49
2023-04-02T16:41:15.282Z,69.01
2023-04-02T16:44:29.714Z,67.89
2023-04-02T16:47:51.568Z,67.92
2023-04-02T16:51:06.946Z,68.72
2023-04-02T16:54:14.449Z,67.87
2023-04-02T16:57:30.153Z,67.09
2023-04-02T17:00:39.554Z,68.69
2023-04-02T17:03:57.841Z,69.46
2023-04-02T17:07:11.657Z,65.60
2023-04-02T17:10:25.515Z,64.25
2023-04-02T17:13:33.070Z,66.66
2023-04-02T17:16:42.677Z,65.52
2023-04-02T17:19:45.975Z,65.31
2023-04-02T17:22:50.202Z,64.85
2023-04-02T17:25:57.136Z,61.80
2023-04-02T17:29:06.877Z,62.05
2023-04-02T17:32:22.380Z,61.46
2023-04-02T17:35:46.368Z,62.36
2023-04-02T17:39:00.926Z,62.73
2023-04-02T17:42:14.230Z,64.03
2023-04-02T17:45:23.331Z,63.83
2023-04-02T17:48:35.708Z,64.32
2023-04-02T17:51:43.473Z,62.61
2023-04-02T17:54:58.910Z,62.62
2023-04-02T17:58:11.707Z,62.13
2023-04-02T18:01:21.749Z,64.39
2023-04-02T18:04:37.346Z,59.79
2023-04-02T18:07:47.885Z,59.83
2023-04-02T18:11:02.806Z,59.81
2023-04-02T18:14:17.320Z,60.56
2023-04-02T18:17:25.171Z,60.58
2023-04-02T18:20:34.085Z,61.48
2023-04-02T18:23:53.677Z,62.93
2023-04-02T18:27:11.436Z,63.54
2023-04-02T18:30:23.208Z,62.93
2023-04-02T18:33:42.001Z,64.12
2023-04-02T18:36:56.355Z,64.40
2023-04-02T18:40:19.871Z,63.21
2023-04-02T18:43:34.330Z,64.06
2023-04-02T18:46:42.728Z,63.29
2023-04-02T18:49:51.812Z,62.82
2023-04-02T18:52:54.994Z,60.36
2023-04-02T18:56:03.985Z,61.12
2023-04-02T18:59:17.950Z,60.90
2023-04-02T19:02:40.247Z,62.37
2023-04-02T19:05:49.715Z,62.13
2023-04-02T19:08:57.653Z,63.52
2023-04-02T19:12:00.601Z,62.51
2023-04-02T19:15:17.371Z,61.93
2023-04-02T19:18:30.490Z,62.88
2023-04-02T19:21:40.509Z,62.52
2023-04-02T19:25:02.340Z,61.66
2023-04-02T19:28:09.410Z,63.03
2023-04-02T19:31:30.616Z,63.73
2023-04-02T19:34:40.851Z,64.33
2023-04-02T19:37:50.928Z,63.87
2023-04-02T19:41:00.539Z,63.76
2023-04-02T19:44:03.418Z,65.35
2023-04-02T19:47:09.216Z,64.63
2023-04-02T19:50:12.145Z,63.80
2023-04-02T19:53:15.678Z,63.40
2023-04-02T19:56:18.376Z,64.34
2023-04-02T19:59:21.384Z,63.16
2023-04-02T20:02:25.912Z,63.55
2023-04-02T20:05:28.666Z,64.39
2023-04-02T20:08:31.662Z,62.73
2023-04-02T20:11:36.112Z,62.65
2023-04-02T20:14:39.221Z,62.91
2023-04-02T20:17:43.290Z,63.67
2023-04-02T20:20:46.567Z,63.60
2023-04-02T20:23:49.277Z,62.85
2023-04-02T20:26:51.954Z,62.00
2023-04-02T20:29:54.646Z,62.33
2023-04-02T20:33:00.323Z,62.70
2023-04-02T20:36:06.085Z,62.92
2023-04-02T20:39:10.670Z,63.30
2023-04-02T20:42:14.222Z,62.44
2023-04-02T20:45:17.180Z,63.22
2023-04-02T20:48:21.687Z,63.05
2023-04-02T20:51:24.430Z,63.40
2023-04-02T20:54:27.347Z,63.31
2023-04-02T20:57:30.704Z,63.09
2023-04-02T21:00:33.768Z,61.82
2023-04-02T21:03:39.775Z,60.38
2023-04-02T21:06:42.941Z,60.83
2023-04-02T21:09:45.670Z,60.73
2023-04-02T21:12:49.447Z,60.78
2023-04-02T21:15:52.171Z,58.96
2023-04-02T21:18:58.321Z,57.90
2023-04-02T21:22:02.357Z,57.28
2023-04-02T21:25:05.434Z,58.10
2023-04-02T21:28:08.192Z,57.81
2023-04-02T21:31:14.469Z,57.79
2023-04-02T21:34:18.784Z,59.07
2023-04-02T21:37:21.637Z,58.62
2023-04-02T21:40:25.038Z,59.60
2023-04-02T21:43:27.753Z,59.07
2023-04-02T21:46:34.624Z,59.26
2023-04-02T21:49:38.658Z,58.18
2023-04-02T21:52:41.354Z,57.97
2023-04-02T21:55:44.005Z,57.59
2023-04-02T21:58:48.251Z,55.36
2023-04-02T22:01:52.644Z,57.20
2023-04-02T22:04:56.789Z,57.02
2023-04-02T22:07:59.422Z,57.85
2023-04-02T22:11:07.091Z,57.27
2023-04-02T22:14:09.813Z,57.59
2023-04-02T22:17:12.561Z,58.77
2023-04-02T22:20:17.161Z,59.14
2023-04-02T22:23:20.593Z,58.42
2023-04-02T22:26:23.993Z,59.48
2023-04-02T22:29:27.169Z,59.93
2023-04-02T22:32:29.877Z,59.86
2023-04-02T22:35:34.020Z,60.60
2023-04-02T22:38:37.427Z,60.98
2023-04-02T22:41:40.429Z,60.72
2023-04-02T22:44:43.101Z,60.58
2023-04-02T22:47:46.428Z,61.21
2023-04-02T22:50:52.719Z,60.74
2023-04-02T22:53:56.831Z,61.76
2023-04-02T22:56:59.584Z,62.00
2023-04-02T23:00:03.832Z,61.74
2023-04-02T23:03:06.913Z,62.64
2023-04-02T23:06:14.539Z,62.20
2023-04-02T23:09:17.260Z,60.37
2023-04-02T23:12:20.064Z,60.28
2023-04-02T23:15:22.833Z,60.09
2023-04-02T23:18:25.510Z,60.13
2023-04-02T23:21:30.691Z,61.13
2023-04-02T23:24:33.417Z,60.94
2023-04-02T23:27:36.128Z,61.79
2023-04-02T23:30:38.828Z,62.55
2023-04-02T23:33:41.552Z,62.60
2023-04-02T23:36:45.748Z,62.85
2023-04-02T23:39:48.378Z,62.85
2023-04-02T23:42:51.340Z,62.69
2023-04-02T23:45:54.067Z,63.54
2023-04-02T23:48:57.264Z,64.39
2023-04-02T23:52:02.266Z,64.40
2023-04-02T23:55:05.303Z,64.91
2023-04-02T23:58:08.098Z,65.64
